Time;durP1;ratioP1;P1;durP2;ratioP2;P2;SDS_P1;SDS_P2;PMS_P1;PMS_P2;Temp;Humidity;BMP_temperature;BMP_pressure;BME280_temperature;BME280_humidity;BME280_pressure;Samples;Min_cycle;Max_cycle;Signal;HPM_P1;HPM_P2
2023/06/08 00:00:17;;;;;;;25.15;10.25;;;;;;;13.73;81.26;102179.31;6100978;19;20340;-70
2023/06/08 00:02:25;;;;;;;20.77;9.68;;;;;;;13.68;81.38;102170.66;6101609;19;20355;-70
2023/06/08 00:04:32;;;;;;;21.05;9.07;;;;;;;13.63;81.71;102169.94;6098523;19;20010;-71
2023/06/08 00:06:40;;;;;;;25.83;9.77;;;;;;;13.57;81.92;102176.28;6098312;19;20550;-69
2023/06/08 00:08:46;;;;;;;21.73;10.23;;;;;;;13.53;82.01;102159.69;6102474;19;20014;-70
2023/06/08 00:10:51;;;;;;;20.52;9.23;;;;;;;13.56;81.96;102164.88;6101133;19;20105;-70
2023/06/08 00:12:57;;;;;;;20.35;10.32;;;;;;;13.52;82.01;102172.94;6101578;19;20058;-69
2023/06/08 00:15:05;;;;;;;19.75;9.68;;;;;;;13.57;82.46;102165.72;6102838;19;20531;-72
2023/06/08 00:17:10;;;;;;;23.60;9.02;;;;;;;13.55;82.11;102165.75;6097050;19;20031;-69
2023/06/08 00:19:15;;;;;;;22.52;8.93;;;;;;;13.54;82.38;102158.78;6099766;19;20031;-70
2023/06/08 00:21:22;;;;;;;25.35;11.00;;;;;;;13.58;81.94;102156.88;6090347;19;20010;-69
2023/06/08 00:23:28;;;;;;;24.85;9.70;;;;;;;13.52;81.78;102152.66;6100189;19;20494;-70
2023/06/08 00:25:35;;;;;;;17.77;8.75;;;;;;;13.49;82.25;102157.19;6096693;19;20090;-71
2023/06/08 00:27:43;;;;;;;21.33;9.43;;;;;;;13.40;82.59;102155.69;6100356;19;20014;-70
2023/06/08 00:29:50;;;;;;;20.60;9.52;;;;;;;13.38;82.78;102155.75;6096970;19;20504;-69
2023/06/08 00:31:57;;;;;;;19.23;8.55;;;;;;;13.35;82.94;102155.00;6099795;19;20495;-68
2023/06/08 00:34:02;;;;;;;20.38;9.10;;;;;;;13.33;82.99;102152.38;6100216;19;20439;-70
2023/06/08 00:36:05;;;;;;;20.95;10.05;;;;;;;13.39;83.13;102148.69;6097931;19;20031;-69
2023/06/08 00:38:10;;;;;;;22.65;9.23;;;;;;;13.35;83.03;102144.44;6100837;19;20289;-71
2023/06/08 00:40:18;;;;;;;23.42;9.57;;;;;;;13.33;83.29;102154.16;6102056;19;20010;-70
2023/06/08 00:42:23;;;;;;;19.40;8.43;;;;;;;13.35;83.47;102147.06;6097146;19;20014;-69
2023/06/08 00:44:28;;;;;;;19.42;8.57;;;;;;;13.30;83.44;102156.91;6101330;19;20059;-69
2023/06/08 00:46:33;;;;;;;24.67;9.40;;;;;;;13.27;83.55;102157.88;6101287;19;20501;-69
2023/06/08 00:48:41;;;;;;;20.15;9.68;;;;;;;13.24;83.87;102152.63;6091072;19;20427;-69
2023/06/08 00:50:50;;;;;;;20.20;10.10;;;;;;;13.20;84.05;102148.38;6096967;19;20299;-70
2023/06/08 00:52:55;;;;;;;19.25;9.05;;;;;;;13.15;84.02;102145.84;6089695;19;20013;-70
2023/06/08 00:55:00;;;;;;;24.02;9.25;;;;;;;13.09;84.12;102139.91;6097838;19;20278;-70
2023/06/08 00:57:08;;;;;;;22.02;10.30;;;;;;;13.07;84.46;102141.72;6093805;19;20486;-70
2023/06/08 00:59:15;;;;;;;26.60;9.20;;;;;;;13.07;84.28;102139.09;6090210;19;20006;-69
2023/06/08 01:01:24;;;;;;;20.55;8.93;;;;;;;13.04;84.44;102134.75;6090262;19;20024;-70
2023/06/08 01:03:35;;;;;;;18.90;9.57;;;;;;;12.98;84.76;102134.97;6092798;19;20049;-70
2023/06/08 01:05:43;;;;;;;23.42;9.10;;;;;;;12.98;85.25;102129.69;6097657;19;20108;-70
2023/06/08 01:07:59;;;;;;;26.80;10.15;;;;;;;12.95;84.96;102129.75;6092912;19;20501;-70
2023/06/08 01:10:10;;;;;;;19.60;10.30;;;;;;;12.98;85.09;102134.97;6093380;19;20357;-69
2023/06/08 01:12:25;;;;;;;19.65;9.10;;;;;;;13.07;85.22;102132.03;6092908;19;20742;-70
2023/06/08 01:14:41;;;;;;;17.10;8.45;;;;;;;13.01;85.14;102132.22;6099274;19;20418;-70
2023/06/08 01:16:52;;;;;;;18.50;9.13;;;;;;;12.98;85.13;102127.03;6094596;19;20014;-69
2023/06/08 01:19:01;;;;;;;20.88;8.93;;;;;;;12.96;85.21;102121.81;6094691;19;20003;-70
2023/06/08 01:21:24;;;;;;;18.38;9.35;;;;;;;12.92;85.65;102124.56;6093334;19;20011;-71
2023/06/08 01:23:45;;;;;;;19.58;9.70;;;;;;;12.92;85.66;102128.06;6087932;19;20384;-70
2023/06/08 01:25:56;;;;;;;18.92;8.98;;;;;;;12.94;85.71;102120.13;6097686;19;20002;-69
2023/06/08 01:28:12;;;;;;;21.25;9.43;;;;;;;12.93;85.72;102127.19;6096001;19;20006;-70
2023/06/08 01:30:17;;;;;;;20.60;9.30;;;;;;;12.92;85.45;102119.28;6096236;19;20010;-70
2023/06/08 01:32:23;;;;;;;20.73;8.77;;;;;;;12.89;85.47;102114.97;6097748;19;20022;-71
2023/06/08 01:34:29;;;;;;;17.98;8.73;;;;;;;12.88;85.98;102107.97;6097994;19;20560;-71
2023/06/08 01:36:42;;;;;;;18.00;9.82;;;;;;;12.85;85.58;102109.81;6095345;19;20039;-71
2023/06/08 01:38:56;;;;;;;18.23;9.57;;;;;;;12.82;86.41;102110.81;6098258;19;20474;-70
2023/06/08 01:41:11;;;;;;;20.13;9.85;;;;;;;12.83;85.88;102104.59;6097612;19;20714;-70
2023/06/08 01:43:18;;;;;;;21.58;10.10;;;;;;;12.81;86.23;102100.28;6085288;19;20324;-69
2023/06/08 01:45:33;;;;;;;23.95;10.40;;;;;;;12.82;86.20;102099.38;6098138;19;20035;-70
2023/06/08 01:47:42;;;;;;;18.67;9.45;;;;;;;12.78;86.72;102105.66;6099376;19;20014;-69
2023/06/08 01:49:50;;;;;;;23.25;9.18;;;;;;;12.76;86.59;102112.75;6096358;19;20428;-70
2023/06/08 01:51:56;;;;;;;17.35;9.35;;;;;;;12.66;86.98;102110.34;6100270;19;20011;-70
2023/06/08 01:54:06;;;;;;;20.88;9.63;;;;;;;12.67;86.59;102109.47;6096632;19;20010;-69
2023/06/08 01:56:13;;;;;;;18.30;8.55;;;;;;;12.68;86.52;102103.28;6100131;19;20015;-69
2023/06/08 01:58:28;;;;;;;18.17;8.60;;;;;;;12.67;86.92;102104.19;6103568;19;20004;-70
2023/06/08 02:00:33;;;;;;;17.00;9.50;;;;;;;12.67;86.50;102106.84;6099713;19;20006;-70
2023/06/08 02:02:39;;;;;;;18.00;8.65;;;;;;;12.67;87.06;102112.09;6100949;19;20568;-70
2023/06/08 02:04:44;;;;;;;17.35;8.80;;;;;;;12.62;86.99;102113.16;6099278;19;20014;-71
2023/06/08 02:06:50;;;;;;;15.00;8.27;;;;;;;12.64;87.37;102104.28;6103311;19;20007;-69
2023/06/08 02:08:54;;;;;;;25.73;9.38;;;;;;;12.62;87.03;102106.09;6102203;19;20043;-70
2023/06/08 02:11:00;;;;;;;16.55;8.48;;;;;;;12.67;86.89;102106.84;6103810;19;20392;-69
2023/06/08 02:13:07;;;;;;;20.27;8.45;;;;;;;12.62;87.34;102105.25;6106672;19;20006;-70
2023/06/08 02:15:14;;;;;;;18.17;9.18;;;;;;;12.56;87.33;102106.28;6107284;19;20042;-69
2023/06/08 02:17:27;;;;;;;19.10;9.27;;;;;;;12.59;87.55;102098.28;6102989;19;20069;-70
2023/06/08 02:19:33;;;;;;;;;;;;;;;12.63;87.17;102093.78;6097599;19;20023;-71
2023/06/08 02:21:39;;;;;;;16.13;8.95;;;;;;;12.64;87.21;102099.00;6097517;19;19939;-70
2023/06/08 02:23:44;;;;;;;20.02;9.23;;;;;;;12.57;87.35;102102.72;6102884;19;20396;-71
2023/06/08 02:25:52;;;;;;;18.50;8.27;;;;;;;12.54;87.53;102102.81;6102669;19;20339;-70
2023/06/08 02:27:57;;;;;;;19.38;9.25;;;;;;;12.53;87.17;102111.63;6100052;19;20017;-71
2023/06/08 02:30:06;;;;;;;15.88;9.07;;;;;;;12.52;87.65;102107.25;6101928;19;20013;-70
2023/06/08 02:32:11;;;;;;;21.23;9.38;;;;;;;12.52;87.36;102108.13;6105639;19;20566;-70
2023/06/08 02:34:17;;;;;;;19.15;10.25;;;;;;;12.50;87.52;102102.03;6103608;19;19999;-70
2023/06/08 02:36:23;;;;;;;16.67;9.05;;;;;;;12.54;87.51;102104.59;6103518;19;20007;-70
2023/06/08 02:38:28;;;;;;;15.05;8.35;;;;;;;12.52;87.83;102112.53;6102286;19;20006;-69
2023/06/08 02:40:33;;;;;;;21.95;10.30;;;;;;;12.55;87.87;102111.59;6099604;19;20007;-69
2023/06/08 02:42:38;;;;;;;19.70;9.65;;;;;;;12.47;87.75;102107.38;6103543;19;20471;-71
2023/06/08 02:44:42;;;;;;;20.23;8.93;;;;;;;12.41;88.19;102106.72;6103556;19;20022;-70
2023/06/08 02:46:50;;;;;;;18.08;8.90;;;;;;;12.46;88.01;102110.94;6102380;19;20010;-70
2023/06/08 02:48:56;;;;;;;16.77;8.32;;;;;;;12.41;88.18;102106.72;6101744;19;20467;-69
2023/06/08 02:51:01;;;;;;;20.42;9.68;;;;;;;12.44;88.43;102106.63;6102507;19;20019;-70
2023/06/08 02:53:09;;;;;;;18.48;9.48;;;;;;;12.42;88.21;102097.88;6097508;19;20010;-69
2023/06/08 02:55:14;;;;;;;19.02;9.48;;;;;;;12.47;88.41;102106.53;6101643;19;20007;-70
2023/06/08 02:57:20;;;;;;;17.92;9.25;;;;;;;12.52;88.21;102102.00;6098768;19;20010;-69
2023/06/08 02:59:25;;;;;;;18.63;9.38;;;;;;;12.54;88.42;102102.81;6099766;19;20051;-70
2023/06/08 03:01:30;;;;;;;19.58;9.40;;;;;;;12.51;88.54;102105.56;6099508;19;20011;-71
2023/06/08 03:03:38;;;;;;;21.83;10.10;;;;;;;12.56;88.21;102110.66;6098703;19;20609;-69
2023/06/08 03:05:43;;;;;;;19.15;10.30;;;;;;;12.55;88.29;102107.19;6099509;19;20487;-71
2023/06/08 03:07:48;;;;;;;20.58;9.80;;;;;;;12.57;88.56;102104.50;6103865;19;20025;-70
2023/06/08 03:09:54;;;;;;;20.65;9.70;;;;;;;12.60;88.21;102097.34;6099132;19;20010;-70
2023/06/08 03:12:02;;;;;;;23.05;10.48;;;;;;;12.64;87.96;102098.16;6097884;19;20018;-70
2023/06/08 03:14:07;;;;;;;19.35;9.88;;;;;;;12.59;88.10;102095.66;6102227;19;20061;-69
2023/06/08 03:16:12;;;;;;;19.25;10.07;;;;;;;12.56;88.08;102093.09;6096232;19;20014;-70
2023/06/08 03:18:17;;;;;;;20.90;10.50;;;;;;;12.47;88.46;102095.97;6102955;19;20018;-70
2023/06/08 03:20:25;;;;;;;16.90;9.07;;;;;;;12.48;88.49;102102.97;6098444;19;20104;-70
2023/06/08 03:22:32;;;;;;;19.15;10.25;;;;;;;12.46;88.27;102100.41;6094778;19;20006;-70
2023/06/08 03:24:37;;;;;;;17.38;9.32;;;;;;;12.45;88.65;102101.31;6098170;19;20007;-70
2023/06/08 03:26:42;;;;;;;21.95;11.38;;;;;;;12.47;88.48;102098.63;6096126;19;20018;-69
2023/06/08 03:28:47;;;;;;;21.92;10.55;;;;;;;12.48;88.45;102105.59;6099812;19;20006;-70
2023/06/08 03:30:55;;;;;;;23.42;10.13;;;;;;;12.47;88.37;102111.81;6098226;19;20750;-70
2023/06/08 03:33:05;;;;;;;21.50;9.70;;;;;;;12.44;88.48;102109.25;6093471;19;20002;-70
2023/06/08 03:35:11;;;;;;;21.20;9.82;;;;;;;12.49;88.64;102112.63;6098123;19;20094;-70
2023/06/08 03:37:25;;;;;;;23.02;10.85;;;;;;;12.49;88.41;102110.00;6096472;19;20082;-69
2023/06/08 03:39:33;;;;;;;23.70;10.05;;;;;;;12.41;88.63;102110.22;6096535;19;20085;-69
2023/06/08 03:41:37;;;;;;;19.10;9.75;;;;;;;12.40;88.66;102100.59;6099455;19;20010;-70
2023/06/08 03:43:42;;;;;;;18.35;9.63;;;;;;;12.41;88.87;102107.56;6097514;19;20011;-68
2023/06/08 03:45:47;;;;;;;20.58;10.60;;;;;;;12.45;88.50;102100.44;6101058;19;20010;-70
2023/06/08 03:47:55;;;;;;;20.23;10.07;;;;;;;12.44;88.55;102093.44;6100682;19;20439;-71
2023/06/08 03:50:01;;;;;;;21.42;10.32;;;;;;;12.42;88.57;102092.63;6098883;19;20018;-70
2023/06/08 03:52:07;;;;;;;23.70;9.77;;;;;;;12.38;88.86;102096.25;6099718;19;20740;-70
2023/06/08 03:54:15;;;;;;;21.00;10.27;;;;;;;12.38;88.96;102098.91;6097706;19;20059;-69
2023/06/08 03:56:20;;;;;;;26.08;11.73;;;;;;;12.40;89.00;102094.41;6099405;19;20490;-69
2023/06/08 03:58:25;;;;;;;23.17;10.60;;;;;;;12.42;88.96;102092.63;6099340;19;20038;-69
2023/06/08 04:00:31;;;;;;;24.17;9.73;;;;;;;12.40;88.96;102094.41;6096572;19;20002;-69
2023/06/08 04:02:35;;;;;;;25.55;11.20;;;;;;;12.35;89.08;102091.94;6099789;19;20530;-69
2023/06/08 04:04:43;;;;;;;24.55;11.35;;;;;;;12.39;88.81;102097.97;6100069;19;20038;-70
2023/06/08 04:06:48;;;;;;;19.10;9.05;;;;;;;12.36;89.04;102098.06;6101878;19;20498;-69
2023/06/08 04:08:53;;;;;;;26.10;10.60;;;;;;;12.38;88.97;102106.81;6100379;19;20066;-69
2023/06/08 04:11:01;;;;;;;25.55;10.55;;;;;;;12.39;88.77;102104.09;6095848;19;20376;-70
2023/06/08 04:13:06;;;;;;;22.85;11.10;;;;;;;12.41;89.08;102098.81;6096743;19;20015;-69
2023/06/08 04:15:12;;;;;;;24.83;11.30;;;;;;;12.44;88.68;102104.84;6089961;19;20007;-70
2023/06/08 04:17:17;;;;;;;24.35;10.88;;;;;;;12.49;88.85;102107.34;6094231;19;20503;-69
2023/06/08 04:19:24;;;;;;;24.52;11.13;;;;;;;12.48;88.62;102102.97;6093149;19;20010;-69
2023/06/08 04:21:29;;;;;;;23.83;10.52;;;;;;;12.43;89.07;102110.19;6090830;19;20010;-69
2023/06/08 04:23:35;;;;;;;25.08;10.65;;;;;;;12.46;88.86;102104.81;6095922;19;20025;-71
2023/06/08 04:25:40;;;;;;;34.58;11.45;;;;;;;12.48;88.80;102100.34;6097106;19;20034;-69
2023/06/08 04:27:48;;;;;;;23.45;10.30;;;;;;;12.50;88.50;102096.75;6097776;19;20010;-70
2023/06/08 04:29:53;;;;;;;23.13;10.68;;;;;;;12.50;88.64;102091.47;6096661;19;20733;-70
2023/06/08 04:31:59;;;;;;;25.92;11.27;;;;;;;12.58;88.30;102098.31;6094931;19;20046;-70
2023/06/08 04:34:04;;;;;;;26.95;12.07;;;;;;;12.56;88.10;102106.28;6097972;19;20006;-70
2023/06/08 04:36:09;;;;;;;28.15;10.88;;;;;;;12.57;88.27;102097.44;6095190;19;20010;-69
2023/06/08 04:38:15;;;;;;;23.08;10.98;;;;;;;12.64;87.97;102098.16;6097964;19;20011;-70
2023/06/08 04:40:20;;;;;;;26.52;10.88;;;;;;;12.67;87.73;102100.69;6100094;19;20010;-71
2023/06/08 04:42:27;;;;;;;27.85;11.23;;;;;;;12.63;88.22;102097.25;6095321;19;20614;-70
2023/06/08 04:44:34;;;;;;;24.80;11.20;;;;;;;12.64;88.16;102095.53;6096931;19;20051;-70
2023/06/08 04:46:41;;;;;;;27.35;11.20;;;;;;;12.66;88.14;102097.16;6095734;19;20026;-70
2023/06/08 04:48:48;;;;;;;24.63;11.45;;;;;;;12.68;87.84;102097.13;6099833;19;20359;-70
2023/06/08 04:50:53;;;;;;;25.90;11.05;;;;;;;12.67;87.85;102095.44;6097987;19;20034;-70
2023/06/08 04:53:01;;;;;;;25.17;11.02;;;;;;;12.67;87.62;102095.44;6096191;19;20783;-71
2023/06/08 04:55:08;;;;;;;26.73;12.40;;;;;;;12.60;87.86;102091.22;6097365;19;20031;-70
2023/06/08 04:57:16;;;;;;;24.40;11.65;;;;;;;12.56;87.88;102089.56;6097302;19;20013;-70
2023/06/08 04:59:27;;;;;;;30.80;12.95;;;;;;;12.63;88.05;102091.13;6094113;19;20082;-70
2023/06/08 05:01:35;;;;;;;29.52;11.60;;;;;;;12.69;87.79;102090.94;6095196;19;20014;-71
2023/06/08 05:03:40;;;;;;;26.17;12.30;;;;;;;12.82;87.34;102091.44;6098270;19;20006;-69
2023/06/08 05:05:45;;;;;;;26.90;11.10;;;;;;;12.86;87.31;102082.56;6095672;19;20418;-70
2023/06/08 05:07:50;;;;;;;27.33;12.85;;;;;;;13.10;86.66;102086.22;6097963;19;20458;-70
2023/06/08 05:09:56;;;;;;;25.17;12.43;;;;;;;13.27;86.44;102096.25;6095044;19;20035;-69
2023/06/08 05:12:05;;;;;;;27.83;11.93;;;;;;;13.30;85.30;102098.81;6098662;19;20007;-71
2023/06/08 05:14:10;;;;;;;32.15;13.20;;;;;;;13.40;85.33;102089.66;6101724;19;20002;-69
2023/06/08 05:16:15;;;;;;;27.85;12.55;;;;;;;13.61;85.01;102096.91;6099577;19;20010;-70
2023/06/08 05:18:27;;;;;;;25.20;11.55;;;;;;;13.76;84.49;102094.66;6104425;19;20234;-69
2023/06/08 05:20:32;;;;;;;30.33;12.38;;;;;;;13.80;83.98;102099.81;6105652;19;20023;-70
2023/06/08 05:22:37;;;;;;;25.83;11.88;;;;;;;13.70;83.82;102097.53;6108801;19;20089;-70
2023/06/08 05:24:42;;;;;;;29.27;12.95;;;;;;;13.57;84.00;102090.00;6111078;19;22601;-69
2023/06/08 05:26:46;;;;;;;34.15;13.25;;;;;;;13.57;84.09;102091.78;6110334;19;20021;-70
2023/06/08 05:28:55;;;;;;;26.40;11.70;;;;;;;13.79;83.85;102091.91;6107910;19;20010;-70
2023/06/08 05:31:02;;;;;;;26.17;11.38;;;;;;;13.98;83.60;102085.09;6106267;19;20926;-70
2023/06/08 05:33:07;;;;;;;27.77;12.50;;;;;;;14.35;82.79;102086.44;6104698;19;20013;-69
2023/06/08 05:35:14;;;;;;;30.55;12.57;;;;;;;14.52;81.78;102084.94;6101117;19;20011;-70
2023/06/08 05:37:19;;;;;;;24.27;10.45;;;;;;;14.65;80.57;102081.81;6096403;19;20007;-70
2023/06/08 05:39:24;;;;;;;30.42;11.75;;;;;;;14.44;80.29;102075.50;6095888;19;20018;-70
2023/06/08 05:41:29;;;;;;;26.98;11.32;;;;;;;14.33;80.65;102067.09;6096644;19;20006;-70
2023/06/08 05:43:34;;;;;;;28.20;12.02;;;;;;;14.52;80.12;102072.56;6095759;19;20006;-71
2023/06/08 05:45:41;;;;;;;22.55;11.00;;;;;;;14.71;79.87;102070.13;6096991;19;20645;-71
2023/06/08 05:47:46;;;;;;;26.35;11.90;;;;;;;14.76;79.70;102070.81;6097719;19;20010;-70
2023/06/08 05:49:51;;;;;;;31.55;12.38;;;;;;;14.74;79.21;102072.66;6098103;19;20015;-70
2023/06/08 05:52:00;;;;;;;32.55;11.35;;;;;;;14.45;79.32;102068.44;6098648;19;20121;-70
2023/06/08 05:54:05;;;;;;;27.80;12.15;;;;;;;14.41;79.83;102062.41;6092323;19;20027;-69
2023/06/08 05:56:10;;;;;;;29.05;11.80;;;;;;;14.54;79.62;102062.84;6095548;19;20121;-69
2023/06/08 05:58:18;;;;;;;29.05;10.80;;;;;;;14.48;79.77;102063.00;6102162;19;20435;-70
2023/06/08 06:00:24;;;;;;;25.30;11.48;;;;;;;14.47;79.49;102059.50;6097334;19;20023;-70
2023/06/08 06:02:31;;;;;;;29.35;12.20;;;;;;;14.56;79.59;102060.13;6103164;19;20007;-69
2023/06/08 06:04:36;;;;;;;27.85;12.23;;;;;;;14.92;79.20;102063.13;6102852;19;20010;-70
2023/06/08 06:06:41;;;;;;;27.58;11.75;;;;;;;14.88;78.47;102064.19;6102438;19;20055;-70
2023/06/08 06:08:51;;;;;;;28.15;12.30;;;;;;;14.99;78.88;102058.47;6099968;19;20012;-71
2023/06/08 06:10:57;;;;;;;24.58;11.45;;;;;;;15.23;77.78;102061.94;6100891;19;20610;-69
2023/06/08 06:13:02;;;;;;;25.95;10.63;;;;;;;15.24;77.71;102056.56;6103981;19;20010;-70
2023/06/08 06:15:08;;;;;;;26.20;12.50;;;;;;;15.35;77.10;102058.78;6103743;19;20027;-70
2023/06/08 06:17:15;;;;;;;25.15;11.85;;;;;;;15.81;75.78;102054.22;6099337;19;20002;-70
2023/06/08 06:19:23;;;;;;;29.83;11.70;;;;;;;16.14;75.12;102049.25;6101692;19;20002;-71
2023/06/08 06:21:28;;;;;;;25.67;11.57;;;;;;;16.33;73.16;102051.06;6106558;19;20553;-70
2023/06/08 06:23:33;;;;;;;23.95;10.65;;;;;;;16.65;72.81;102047.78;6106459;19;20054;-69
2023/06/08 06:25:41;;;;;;;28.17;10.38;;;;;;;16.85;71.01;102056.63;6108310;19;20047;-69
2023/06/08 06:27:45;;;;;;;21.85;9.38;;;;;;;16.93;70.08;102049.19;6110394;19;20610;-69
2023/06/08 06:29:54;;;;;;;20.63;9.85;;;;;;;17.10;68.90;102053.66;6097947;19;20293;-71
2023/06/08 06:32:00;;;;;;;26.70;10.45;;;;;;;17.37;68.95;102043.47;6099832;19;20014;-69
2023/06/08 06:34:05;;;;;;;23.48;9.32;;;;;;;17.51;66.70;102045.47;6100934;19;20011;-68
2023/06/08 06:36:10;;;;;;;18.83;10.07;;;;;;;17.71;67.21;102053.25;6105413;19;20450;-71
2023/06/08 06:38:15;;;;;;;19.75;10.10;;;;;;;17.44;66.04;102052.88;6104795;19;20007;-71
2023/06/08 06:40:22;;;;;;;19.23;9.88;;;;;;;17.21;65.81;102055.81;6102619;19;20641;-70
2023/06/08 06:42:30;;;;;;;18.23;8.57;;;;;;;17.43;66.45;102058.25;6104779;19;20027;-70
2023/06/08 06:44:35;;;;;;;18.95;9.98;;;;;;;17.58;66.12;102056.63;6100847;19;20397;-68
2023/06/08 06:46:40;;;;;;;21.27;9.70;;;;;;;17.73;64.92;102055.84;6103212;19;20025;-70
2023/06/08 06:48:45;;;;;;;22.92;9.52;;;;;;;17.99;64.68;102054.53;6105186;19;20009;-71
2023/06/08 06:50:50;;;;;;;24.05;9.13;;;;;;;18.01;63.79;102058.00;6103735;19;20337;-70
2023/06/08 06:52:55;;;;;;;18.05;8.80;;;;;;;18.42;63.31;102055.75;6096977;19;20014;-71
2023/06/08 06:55:01;;;;;;;19.42;8.35;;;;;;;18.45;62.93;102053.88;6106426;19;20022;-70
2023/06/08 06:57:07;;;;;;;17.98;8.00;;;;;;;18.54;62.58;102058.72;6078671;19;20011;-70
2023/06/08 06:59:17;;;;;;;17.77;8.85;;;;;;;18.68;61.38;102053.47;6101214;19;20072;-70
2023/06/08 07:01:23;;;;;;;21.88;8.48;;;;;;;18.65;61.21;102059.84;6083379;19;20078;-70
2023/06/08 07:03:29;;;;;;;19.60;9.00;;;;;;;18.71;61.46;102057.78;6104349;19;20010;-70
2023/06/08 07:05:34;;;;;;;18.38;8.38;;;;;;;18.86;59.76;102049.81;6078013;19;20358;-70
2023/06/08 07:07:42;;;;;;;18.95;8.60;;;;;;;19.13;59.62;102059.88;6089931;19;20011;-70
2023/06/08 07:09:47;;;;;;;22.55;8.98;;;;;;;18.85;59.78;102048.13;6100930;19;20102;-69
2023/06/08 07:11:52;;;;;;;17.85;7.88;;;;;;;19.24;59.58;102048.59;6092755;19;20017;-70
2023/06/08 07:14:24;;;;;;;16.83;8.13;;;;;;;19.21;57.97;102054.94;6092625;19;20010;-70
2023/06/08 07:16:29;;;;;;;20.07;8.50;;;;;;;19.37;57.81;102059.41;6069781;19;20050;-71
2023/06/08 07:18:37;;;;;;;18.30;8.13;;;;;;;19.38;57.71;102056.66;6094924;19;20284;-71
2023/06/08 07:20:41;;;;;;;16.88;7.88;;;;;;;19.58;58.04;102049.28;6094390;19;20436;-71
2023/06/08 07:22:47;;;;;;;15.05;7.68;;;;;;;20.14;56.71;102040.56;6093595;19;20011;-71
2023/06/08 07:25:16;;;;;;;15.70;7.47;;;;;;;20.20;55.14;102046.47;6075869;19;20018;-71
2023/06/08 07:27:41;;;;;;;18.45;8.00;;;;;;;20.42;54.31;102049.50;6095368;19;20006;-69
2023/06/08 07:29:49;;;;;;;17.55;7.97;;;;;;;20.22;54.36;102044.53;6097699;19;20645;-71
2023/06/08 07:31:54;;;;;;;16.00;7.57;;;;;;;20.00;54.19;102059.22;6097649;19;20090;-70
2023/06/08 07:34:02;;;;;;;21.65;9.20;;;;;;;20.13;53.81;102054.00;6093665;19;20167;-71
2023/06/08 07:36:07;;;;;;;20.38;8.02;;;;;;;19.65;55.34;102055.97;6094100;19;20050;-70
2023/06/08 07:38:13;;;;;;;20.85;9.30;;;;;;;19.93;55.72;102052.53;6098578;19;20058;-72
2023/06/08 07:40:19;;;;;;;17.48;7.70;;;;;;;19.50;55.64;102053.25;6096733;19;20006;-69
2023/06/08 07:42:24;;;;;;;16.75;8.10;;;;;;;19.19;56.67;102056.84;6093762;19;20010;-70
2023/06/08 07:44:29;;;;;;;19.40;7.93;;;;;;;19.92;56.83;102051.66;6097724;19;20010;-69
2023/06/08 07:46:36;;;;;;;19.17;8.10;;;;;;;19.46;55.90;102050.88;6102412;19;20075;-71
2023/06/08 07:48:41;;;;;;;19.23;7.97;;;;;;;19.84;55.96;102047.75;6096036;19;20352;-70
2023/06/08 07:50:46;;;;;;;14.48;7.30;;;;;;;20.36;54.49;102039.22;6091153;19;20047;-71
2023/06/08 07:52:51;;;;;;;17.55;8.25;;;;;;;20.65;53.61;102039.22;6076502;19;20014;-71
2023/06/08 07:54:58;;;;;;;20.02;8.45;;;;;;;20.77;52.84;102039.31;6073200;19;20397;-70
2023/06/08 07:57:04;;;;;;;15.77;8.15;;;;;;;20.92;52.48;102034.75;6094363;19;20013;-70
2023/06/08 07:59:08;;;;;;;17.35;7.68;;;;;;;21.15;52.53;102032.41;6098675;19;20006;-70
2023/06/08 08:01:13;;;;;;;17.52;9.45;;;;;;;21.46;52.37;102031.25;6090501;19;20063;-70
2023/06/08 08:03:21;;;;;;;18.08;7.55;;;;;;;21.66;50.99;102029.88;6092987;19;20085;-69
2023/06/08 08:05:26;;;;;;;16.00;7.10;;;;;;;21.48;50.55;102022.16;6092395;19;20018;-70
2023/06/08 08:07:31;;;;;;;18.98;8.13;;;;;;;21.64;50.08;102024.63;6100523;19;20034;-70
2023/06/08 08:09:36;;;;;;;17.90;7.40;;;;;;;21.45;50.80;102022.34;6077401;19;20019;-71
2023/06/08 08:11:41;;;;;;;17.55;7.32;;;;;;;21.40;50.20;102028.97;6096540;19;20027;-70
2023/06/08 08:13:46;;;;;;;15.45;7.85;;;;;;;21.77;49.79;102023.78;6095874;19;20011;-70
2023/06/08 08:15:54;;;;;;;17.27;7.53;;;;;;;22.27;49.12;102033.63;6093294;19;20021;-70
2023/06/08 08:18:00;;;;;;;14.93;7.30;;;;;;;22.46;49.10;102038.56;6095212;19;20010;-70
2023/06/08 08:20:10;;;;;;;16.88;7.45;;;;;;;21.56;49.16;102032.31;6072304;19;20050;-71
2023/06/08 08:22:15;;;;;;;21.58;8.55;;;;;;;21.22;50.06;102029.22;6091907;19;20038;-71
2023/06/08 08:24:20;;;;;;;16.58;7.55;;;;;;;21.12;49.46;102040.63;6094586;19;20014;-70
2023/06/08 08:26:25;;;;;;;19.60;8.55;;;;;;;21.17;48.97;102035.81;6098303;19;20074;-70
2023/06/08 08:28:33;;;;;;;14.45;7.32;;;;;;;;;;6097250;19;20014;-70
2023/06/08 08:30:38;;;;;;;16.50;8.02;;;;;;;21.68;48.49;102035.97;6096522;19;20319;-70
2023/06/08 08:32:43;;;;;;;20.67;9.32;;;;;;;21.72;48.34;102034.78;6099844;19;20014;-71
2023/06/08 08:34:50;;;;;;;17.23;8.25;;;;;;;21.86;48.33;102034.72;6098649;19;20028;-69
2023/06/08 08:36:58;;;;;;;15.88;7.97;;;;;;;22.44;48.51;102029.78;6093094;19;20089;-68
2023/06/08 08:39:03;;;;;;;18.10;7.90;;;;;;;22.84;47.01;102036.75;6084976;19;20050;-70
2023/06/08 08:41:11;;;;;;;15.00;7.25;;;;;;;22.31;48.27;102029.78;6089299;19;20009;-71
2023/06/08 08:43:22;;;;;;;19.48;8.23;;;;;;;22.19;48.38;102024.44;6100903;19;20032;-70
2023/06/08 08:45:34;;;;;;;17.50;8.57;;;;;;;22.73;47.24;102024.13;6108053;19;20046;-70
2023/06/08 08:47:40;;;;;;;14.38;7.57;;;;;;;23.22;47.56;102034.78;6113725;19;20014;-70
2023/06/08 08:49:49;;;;;;;19.00;8.15;;;;;;;23.30;45.83;102030.66;6107422;19;20029;-70
2023/06/08 08:51:59;;;;;;;17.00;8.02;;;;;;;23.20;46.43;102026.00;6108908;19;20014;-69
2023/06/08 08:54:06;;;;;;;17.75;7.93;;;;;;;23.43;46.54;102031.41;6079790;19;20009;-70
2023/06/08 08:56:12;;;;;;;21.00;8.15;;;;;;;23.47;45.93;102018.66;6078550;19;20365;-71
2023/06/08 08:58:18;;;;;;;17.60;7.95;;;;;;;23.52;44.73;102028.06;6076537;19;20003;-72
2023/06/08 09:00:27;;;;;;;12.82;6.90;;;;;;;23.55;44.77;102025.13;6092189;19;20094;-71
2023/06/08 09:02:35;;;;;;;15.02;6.95;;;;;;;22.84;44.83;102028.69;6074265;19;20066;-72
2023/06/08 09:04:40;;;;;;;14.50;7.13;;;;;;;22.97;45.33;102026.84;6094873;19;20006;-71
2023/06/08 09:06:50;;;;;;;16.63;7.65;;;;;;;22.76;45.52;102027.44;6096626;19;20007;-73
2023/06/08 09:08:59;;;;;;;13.75;7.65;;;;;;;22.81;46.19;102020.88;6091569;19;20071;-71
2023/06/08 09:11:06;;;;;;;13.70;7.53;;;;;;;23.19;46.17;102028.78;6091354;19;20030;-70
2023/06/08 09:13:22;;;;;;;15.10;7.63;;;;;;;23.08;44.93;102024.22;6094639;19;20025;-70
2023/06/08 09:15:31;;;;;;;13.13;7.53;;;;;;;23.05;45.37;102019.09;6093488;19;20022;-69
2023/06/08 09:17:40;;;;;;;15.98;6.95;;;;;;;23.06;45.65;102020.78;6087846;19;20491;-68
2023/06/08 09:19:56;;;;;;;17.13;7.57;;;;;;;23.48;45.47;102021.19;6077918;19;20419;-70
2023/06/08 09:22:01;;;;;;;15.15;7.32;;;;;;;23.74;44.49;102015.69;6078263;19;20006;-68
2023/06/08 09:24:12;;;;;;;12.52;6.47;;;;;;;23.94;43.66;102012.31;6099188;19;20138;-68
2023/06/08 09:26:33;;;;;;;13.82;7.47;;;;;;;24.09;43.97;102005.72;6096363;19;20009;-68
2023/06/08 09:28:38;;;;;;;16.15;7.38;;;;;;;24.36;43.46;102007.19;6098583;19;20629;-69
2023/06/08 09:30:43;;;;;;;14.27;6.80;;;;;;;24.26;43.78;102006.22;6098496;19;20370;-69
2023/06/08 09:32:48;;;;;;;19.15;7.07;;;;;;;23.89;44.50;102009.13;6076649;19;20260;-68
2023/06/08 09:34:56;;;;;;;15.10;6.97;;;;;;;23.93;43.21;102007.03;6103126;19;20023;-68
2023/06/08 09:37:09;;;;;;;13.60;6.60;;;;;;;23.81;44.10;102006.19;6104147;19;20435;-67
2023/06/08 09:39:16;;;;;;;17.08;7.28;;;;;;;24.01;43.82;102009.97;6097975;19;20013;-70
2023/06/08 09:41:22;;;;;;;16.77;7.28;;;;;;;23.99;44.07;102004.75;6075705;19;20481;-69